Oosterpark, Netherlands
Current Conditions -  °F | °C
As of 5:25 PM on Monday 22 Dec 2014 (Local Time) from EHGG Reporting Station
Drizzle Drizzle  
Wind Chill: 52°   Ceiling: 1600
Heat Index: 52°   Visibility: 4mi
Dew Point: 48°   Wind: 23mph
Humidity: 88%   Direction: 240°WSW
Pressure: 29.85"   Gusts: 35mph
Location:  53.22°N, 6.59°E
Report Text: EHGG 221625Z AUTO 24020G30KT 210V280 6000 DZ FEW014///BKN016/// BKN019/// 11/09 Q1011 TEMPO 8000 -DZRA BKN012
Loading
Personal Weather Stations






























Interactive Weather Map New forecast layout! Learn more

10-Day Weather Forecast

Advertisements
Track Severe Weather on mobile